Spiritwood, North Dakota
Current Conditions -  °F | °C
As of 5:56 PM on Friday 21 Nov 2014 (Local Time) from KJMS Reporting Station
Clear Clear  
Wind Chill: 28°   Ceiling: Unl
Heat Index: 35°   Visibility: 10mi
Dew Point: 27°   Wind: 9mph
Humidity: 72%   Direction: 220°SW
Pressure: 29.66"   Gusts: NA
Location:  46.94°N, 98.5°W
Report Text: KJMS 212356Z AUTO 22008KT 10SM CLR 02/M03 A2966 RMK AO2 SLP063 T00171028 10039 20000 56006
Loading
Personal Weather Stations






























Interactive Weather Map New forecast layout! Learn more

10-Day Weather Forecast

Advertisements
Track Severe Weather on mobile